Weather History for Three Rivers, MI

Change the Weather History Date:

Wednesday, March 27, 2013

  Actual Average Record
Temperature  
Mean Temperature 36 °F -  
Max Temperature 43 °F 50 °F 75 °F (2007)
Min Temperature 29 °F 30 °F -2 °F (1965)
Degree Days  
Heating Degree Days 29    
Moisture  
Dew Point 24 °F    
Average Humidity 64    
Maximum Humidity 91    
Minimum Humidity 38    
Precipitation  
Precipitation 0.00 in - - ()
Sea Level Pressure  
Sea Level Pressure 30.23 in    
Wind  
Wind Speed 9 mph (WNW)    
Max Wind Speed 22 mph    
Max Gust Speed 26 mph    
Visibility 10 miles    
Events      
Averages and records for this station are not official NWS values.
T = Trace of Precipitation, MM = Missing Value Source: NWS Daily Summary

Daily Weather History Graph

Daily Weather History Graph

Search for Another Location

Airport:

Trip Planner

Search our weather history database for the weather conditions in past years. The results will help you decide how hot, cold, wet, or windy it might be!

Date:

Astronomy

Mar. 27, 2013 Rise Set
Actual Time 7:33 AM EDT 8:02 PM EDT
Civil Twilight 7:05 AM EDT 8:30 PM EDT
Nautical Twilight 6:32 AM EDT 9:03 PM EDT
Astronomical Twilight 5:58 AM EDT 9:37 PM EDT
Moon 8:47 PM EDT (3/27) 7:23 AM EDT (3/27)
Length of Visible Light 13h 25m
Length of Day
12h 29m
Full, 100% of the Moon is Illuminated
Mar 27
Full
Apr 3
Last Quarter
Apr 10
New
Apr 18
First Quarter
Apr 25
Full

Hourly Weather History & Observations

Time (EDT) Temp. Windchill Dew Point Humidity Pressure Visibility Wind Dir Wind Speed Gust Speed Precip Events Conditions
12:14 AM 33.8 °F 27.0 °F 28.4 °F 81% 30.18 in 10.0 mi NW 8.1 mph - N/A   Overcast
12:35 AM 33.8 °F 27.7 °F 28.4 °F 81% 30.18 in 10.0 mi NW 6.9 mph - N/A   Overcast
12:54 AM 33.6 °F 26.2 °F 28.4 °F 81% 30.18 in 10.0 mi NW 9.2 mph - N/A   Overcast
1:14 AM 33.8 °F 27.0 °F 28.4 °F 81% 30.18 in 10.0 mi NW 8.1 mph - N/A   Overcast
1:35 AM 33.4 °F 27.3 °F 28.2 °F 81% 30.18 in 10.0 mi WNW 6.9 mph - N/A   Overcast
1:54 AM 33.3 °F 27.1 °F 28.4 °F 82% 30.19 in 10.0 mi WNW 6.9 mph - N/A   Overcast
2:15 AM 33.1 °F 27.7 °F 28.4 °F 83% 30.19 in 10.0 mi WNW 5.8 mph - N/A   Overcast
2:35 AM 33.1 °F 27.7 °F 28.8 °F 84% 30.19 in 10.0 mi WNW 5.8 mph - N/A   Overcast
2:54 AM 33.1 °F 27.7 °F 28.8 °F 84% 30.19 in 10.0 mi WNW 5.8 mph - N/A   Overcast
3:15 AM 32.9 °F 27.5 °F 28.9 °F 85% 30.19 in 10.0 mi WNW 5.8 mph - N/A   Overcast
3:35 AM 32.9 °F 26.7 °F 28.9 °F 85% 30.19 in 10.0 mi WNW 6.9 mph - N/A   Overcast
3:54 AM 32.9 °F 26.7 °F 28.8 °F 85% 30.19 in 10.0 mi WNW 6.9 mph - N/A   Overcast
4:15 AM 32.4 °F 26.0 °F 28.4 °F 85% 30.19 in 10.0 mi WNW 6.9 mph - N/A   Overcast
4:34 AM 32.5 °F 26.2 °F 28.6 °F 85% 30.19 in 10.0 mi WNW 6.9 mph - N/A   Overcast
4:54 AM 32.2 °F 25.8 °F 28.0 °F 85% 30.19 in 10.0 mi WNW 6.9 mph - N/A   Overcast
5:15 AM 32.0 °F 24.8 °F 28.0 °F 85% 30.19 in 10.0 mi WNW 8.1 mph - N/A   Mostly Cloudy
5:34 AM 31.8 °F 24.6 °F 27.9 °F 85% 30.20 in 10.0 mi West 8.1 mph - N/A   Mostly Cloudy
5:54 AM 31.6 °F 25.1 °F 27.9 °F 86% 30.20 in 10.0 mi WNW 6.9 mph - N/A   Scattered Clouds
6:15 AM 30.6 °F 24.7 °F 27.1 °F 87% 30.20 in 10.0 mi WNW 5.8 mph - N/A   Clear
6:34 AM 29.7 °F 24.7 °F 26.6 °F 88% 30.21 in 10.0 mi WNW 4.6 mph - N/A   Clear
6:55 AM 29.5 °F 23.4 °F 26.6 °F 89% 30.21 in 10.0 mi WNW 5.8 mph - N/A   Scattered Clouds
7:15 AM 29.1 °F 25.4 °F 26.4 °F 90% 30.21 in 10.0 mi West 3.5 mph - N/A   Scattered Clouds
7:34 AM 29.3 °F 25.6 °F 26.8 °F 90% 30.22 in 10.0 mi West 3.5 mph - N/A   Scattered Clouds
7:55 AM 29.5 °F 25.9 °F 27.0 °F 90% 30.22 in 10.0 mi West 3.5 mph - N/A   Scattered Clouds
8:15 AM 30.7 °F 27.3 °F 28.0 °F 90% 30.22 in 10.0 mi West 3.5 mph - N/A   Scattered Clouds
8:34 AM 32.2 °F 27.7 °F 29.8 °F 91% 30.23 in 10.0 mi WNW 4.6 mph - N/A   Clear
8:55 AM 34.0 °F 28.0 °F 31.1 °F 89% 30.23 in 10.0 mi WNW 6.9 mph - N/A   Clear
9:14 AM 35.1 °F 26.9 °F 31.1 °F 85% 30.24 in 10.0 mi WNW 11.5 mph - N/A   Clear
9:35 AM 36.1 °F 29.3 °F 31.1 °F 82% 30.24 in 10.0 mi NW 9.2 mph - N/A   Clear
9:55 AM 37.4 °F 29.8 °F 30.0 °F 75% 30.24 in 10.0 mi WNW 11.5 mph - N/A   Scattered Clouds
10:14 AM 38.1 °F 29.5 °F 28.9 °F 70% 30.24 in 10.0 mi WNW 15.0 mph - N/A   Scattered Clouds
10:35 AM 39.0 °F 31.4 °F 28.4 °F 66% 30.24 in 10.0 mi WNW 12.7 mph 17.3 mph N/A   Mostly Cloudy
10:54 AM 39.2 °F 32.5 °F 27.0 °F 62% 30.24 in 10.0 mi WNW 10.4 mph 17.3 mph N/A   Mostly Cloudy
11:14 AM 39.4 °F 32.3 °F 25.3 °F 57% 30.24 in 10.0 mi NW 11.5 mph - N/A   Mostly Cloudy
11:35 AM 41.2 °F 33.7 °F 23.5 °F 50% 30.24 in 10.0 mi NW 13.8 mph 23.0 mph N/A   Mostly Cloudy
11:54 AM 41.2 °F 34.1 °F 23.7 °F 50% 30.25 in 10.0 mi NW 12.7 mph 18.4 mph N/A   Mostly Cloudy
12:14 PM 42.3 °F 34.1 °F 22.5 °F 45% 30.25 in 10.0 mi NW 17.3 mph 21.9 mph N/A   Mostly Cloudy
12:35 PM 41.2 °F 34.1 °F 21.6 °F 46% 30.24 in 10.0 mi WNW 12.7 mph 20.7 mph N/A   Overcast
12:54 PM 41.5 °F 32.9 °F 20.1 °F 42% 30.24 in 10.0 mi NW 18.4 mph 26.5 mph N/A   Overcast
1:15 PM 42.1 °F 34.5 °F 18.9 °F 39% 30.24 in 10.0 mi NW 15.0 mph 26.5 mph N/A   Mostly Cloudy
1:34 PM 41.4 °F 34.3 °F 19.8 °F 42% 30.24 in 10.0 mi WNW 12.7 mph - N/A   Mostly Cloudy
1:55 PM 43.7 °F 35.7 °F 20.8 °F 40% 30.24 in 10.0 mi WNW 18.4 mph 21.9 mph N/A   Mostly Cloudy
2:14 PM 43.5 °F 34.7 °F 19.9 °F 39% 30.24 in 10.0 mi West 21.9 mph 26.5 mph N/A   Mostly Cloudy
2:34 PM 41.2 °F 32.4 °F 19.2 °F 41% 30.24 in 10.0 mi WNW 18.4 mph 25.3 mph N/A   Mostly Cloudy
2:55 PM 43.2 °F 35.3 °F 20.1 °F 40% 30.24 in 10.0 mi NW 17.3 mph 26.5 mph N/A   Scattered Clouds
3:14 PM 43.2 °F 35.3 °F 20.1 °F 40% 30.24 in 10.0 mi West 17.3 mph 25.3 mph N/A   Scattered Clouds
3:35 PM 43.7 °F 35.7 °F 19.8 °F 38% 30.24 in 10.0 mi NW 18.4 mph 25.3 mph N/A   Scattered Clouds
3:55 PM 43.5 °F 36.1 °F 19.9 °F 39% 30.23 in 10.0 mi WNW 16.1 mph 24.2 mph N/A   Scattered Clouds
4:14 PM 43.5 °F 36.4 °F 20.1 °F 39% 30.23 in 10.0 mi WNW 15.0 mph 25.3 mph N/A   Scattered Clouds
4:35 PM 43.5 °F 35.5 °F 20.3 °F 40% 30.22 in 10.0 mi WNW 18.4 mph 24.2 mph N/A   Scattered Clouds
4:55 PM 43.0 °F 35.1 °F 19.6 °F 39% 30.23 in 10.0 mi NW 17.3 mph 23.0 mph N/A   Scattered Clouds
5:14 PM 43.0 °F 34.8 °F 19.4 °F 39% 30.23 in 10.0 mi West 18.4 mph 24.2 mph N/A   Clear
5:35 PM 41.9 °F 33.7 °F 18.5 °F 39% 30.23 in 10.0 mi WNW 17.3 mph 21.9 mph N/A   Clear
5:54 PM 41.7 °F 33.1 °F 18.3 °F 39% 30.23 in 10.0 mi WNW 18.4 mph 23.0 mph N/A   Clear
6:14 PM 41.0 °F 32.8 °F 18.7 °F 41% 30.24 in 10.0 mi NW 16.1 mph - N/A   Clear
6:35 PM 40.3 °F 32.2 °F 18.1 °F 41% 30.24 in 10.0 mi NW 15.0 mph 21.9 mph N/A   Clear
6:54 PM 39.9 °F 31.8 °F 18.0 °F 41% 30.24 in 10.0 mi WNW 15.0 mph 23.0 mph N/A   Clear
7:14 PM 39.2 °F 30.2 °F 17.6 °F 42% 30.24 in 10.0 mi WNW 17.3 mph 21.9 mph N/A   Clear
7:34 PM 38.3 °F 30.9 °F 17.4 °F 43% 30.25 in 10.0 mi WNW 11.5 mph 20.7 mph N/A   Clear
7:54 PM 37.4 °F 29.3 °F 17.2 °F 44% 30.25 in 10.0 mi NW 12.7 mph 16.1 mph N/A   Clear
8:15 PM 36.5 °F 29.7 °F 17.6 °F 46% 30.25 in 10.0 mi NW 9.2 mph - N/A   Clear
8:34 PM 35.4 °F 28.4 °F 18.3 °F 50% 30.26 in 10.0 mi WNW 9.2 mph - N/A   Clear
8:55 PM 34.7 °F 28.1 °F 18.5 °F 52% 30.26 in 10.0 mi WNW 8.1 mph - N/A   Clear
9:14 PM 33.4 °F 27.3 °F 19.0 °F 56% 30.26 in 10.0 mi WNW 6.9 mph - N/A   Clear
9:34 PM 31.6 °F 27.0 °F 19.6 °F 61% 30.27 in 10.0 mi WNW 4.6 mph - N/A   Clear
9:55 PM 31.3 °F 26.6 °F 20.1 °F 63% 30.27 in 10.0 mi West 4.6 mph - N/A   Clear
10:14 PM 31.6 °F 27.0 °F 19.4 °F 61% 30.27 in 10.0 mi West 4.6 mph - N/A   Clear
10:35 PM 30.2 °F 25.4 °F 20.3 °F 67% 30.27 in 10.0 mi West 4.6 mph - N/A   Clear
10:55 PM 30.6 °F 27.1 °F 20.3 °F 66% 30.27 in 10.0 mi West 3.5 mph - N/A   Clear
11:14 PM 30.9 °F 26.2 °F 19.9 °F 64% 30.27 in 10.0 mi West 4.6 mph - N/A   Clear
11:35 PM 30.7 °F 24.9 °F 20.1 °F 65% 30.27 in 10.0 mi West 5.8 mph - N/A   Clear
11:55 PM 30.7 °F 24.9 °F 20.1 °F 65% 30.27 in 10.0 mi West 5.8 mph - N/A   Clear